Time;durP1;ratioP1;P1;durP2;ratioP2;P2;SDS_P1;SDS_P2;PMS_P1;PMS_P2;Temp;Humidity;BMP_temperature;BMP_pressure;BME280_temperature;BME280_humidity;BME280_pressure;Samples;Min_cycle;Max_cycle;Signal;HPM_P1;HPM_P2
2022/07/11 00:02:06;;;;;;;7.10;3.33;;;15.70;99.90;;;;;;4979436;28;20051;-81
2022/07/11 00:04:32;;;;;;;6.10;3.33;;;15.70;99.90;;;;;;4996410;28;20074;-82
2022/07/11 00:06:58;;;;;;;5.05;3.45;;;15.70;99.90;;;;;;4997983;28;20078;-82
2022/07/11 00:09:24;;;;;;;6.97;3.65;;;15.70;99.90;;;;;;4973734;28;20046;-82
2022/07/11 00:11:50;;;;;;;6.47;3.50;;;15.70;99.90;;;;;;5016430;28;20044;-81
2022/07/11 00:14:16;;;;;;;6.18;3.30;;;15.70;99.90;;;;;;4996907;28;20089;-81
2022/07/11 00:16:41;;;;;;;6.90;3.92;;;15.70;99.90;;;;;;5009489;28;20045;-82
2022/07/11 00:19:07;;;;;;;3.95;3.00;;;15.70;99.90;;;;;;4996398;28;20046;-81
2022/07/11 00:21:36;;;;;;;6.65;3.70;;;15.70;99.90;;;;;;4996102;28;20116;-82
2022/07/11 00:24:04;;;;;;;5.95;3.33;;;15.70;99.90;;;;;;5011400;28;20060;-84
2022/07/11 00:26:30;;;;;;;6.75;3.08;;;15.70;99.90;;;;;;5011783;28;20053;-83
2022/07/11 00:28:56;;;;;;;5.68;3.00;;;15.70;99.90;;;;;;5008809;28;20110;-84
2022/07/11 00:31:22;;;;;;;6.85;3.15;;;15.70;99.90;;;;;;4970629;28;20041;-83
2022/07/11 00:33:48;;;;;;;4.53;2.38;;;15.70;99.90;;;;;;4994613;28;20052;-83
2022/07/11 00:36:13;;;;;;;3.70;2.55;;;15.70;99.90;;;;;;4994539;28;20108;-82
2022/07/11 00:38:39;;;;;;;4.30;2.17;;;15.70;99.90;;;;;;5012865;28;20049;-83
2022/07/11 00:41:05;;;;;;;4.32;2.10;;;15.70;99.90;;;;;;4995008;28;20034;-83
2022/07/11 00:43:38;;;;;;;4.55;2.55;;;15.60;99.90;;;;;;5011512;28;20049;-83
2022/07/11 00:46:07;;;;;;;3.28;2.20;;;15.60;99.90;;;;;;4979065;28;20060;-84
2022/07/11 00:48:33;;;;;;;3.25;2.00;;;15.60;99.90;;;;;;5012716;28;20120;-82
2022/07/11 00:50:58;;;;;;;4.60;2.00;;;15.60;99.90;;;;;;4994732;28;20575;-83
2022/07/11 00:53:24;;;;;;;3.78;2.03;;;15.60;99.90;;;;;;4994942;28;20048;-83
2022/07/11 00:55:52;;;;;;;2.67;1.70;;;15.60;99.90;;;;;;4994759;28;20060;-83
2022/07/11 00:58:18;;;;;;;3.55;1.90;;;15.50;99.90;;;;;;5012376;28;20041;-83
2022/07/11 01:00:43;;;;;;;3.47;2.58;;;15.50;99.90;;;;;;4995003;28;20048;-84
2022/07/11 01:03:09;;;;;;;5.18;1.90;;;15.50;99.90;;;;;;4978389;28;20065;-84
2022/07/11 01:05:35;;;;;;;4.03;2.30;;;15.50;99.90;;;;;;4994692;28;20050;-85
2022/07/11 01:08:01;;;;;;;4.32;2.13;;;15.40;99.90;;;;;;4995877;28;20097;-82
2022/07/11 01:10:26;;;;;;;5.10;2.20;;;15.40;99.90;;;;;;4995949;28;20065;-84
2022/07/11 01:12:52;;;;;;;3.92;1.85;;;15.40;99.90;;;;;;5001531;28;20120;-83
2022/07/11 01:15:17;;;;;;;6.38;2.25;;;15.40;99.90;;;;;;4978518;28;20133;-84
2022/07/11 01:17:43;;;;;;;4.15;2.10;;;15.30;99.90;;;;;;5022667;28;20042;-83
2022/07/11 01:20:09;;;;;;;6.50;2.28;;;15.30;99.90;;;;;;4990435;28;20054;-82
2022/07/11 01:22:42;;;;;;;3.90;2.20;;;15.30;99.90;;;;;;5010464;28;20129;-85
2022/07/11 01:25:08;;;;;;;6.38;2.30;;;15.30;99.90;;;;;;4964636;28;20121;-83
2022/07/11 01:27:34;;;;;;;3.38;2.20;;;15.20;99.90;;;;;;4994266;28;20136;-83
2022/07/11 01:30:00;;;;;;;5.72;2.25;;;15.20;99.90;;;;;;4977429;28;20045;-84
2022/07/11 01:32:25;;;;;;;3.50;2.17;;;15.20;99.90;;;;;;4993926;28;20053;-83
2022/07/11 01:34:51;;;;;;;6.65;2.50;;;15.30;99.90;;;;;;5011002;28;20060;-84
2022/07/11 01:37:17;;;;;;;3.05;2.40;;;15.20;99.90;;;;;;5011566;28;20117;-82
2022/07/11 01:39:42;;;;;;;4.57;2.80;;;15.20;99.90;;;;;;5011250;28;20049;-83
2022/07/11 01:42:08;;;;;;;5.20;2.38;;;15.20;99.90;;;;;;4997074;28;20077;-83
2022/07/11 01:44:33;;;;;;;5.10;2.75;;;15.20;99.90;;;;;;5011349;28;20058;-84
2022/07/11 01:46:59;;;;;;;5.90;2.85;;;15.30;99.90;;;;;;5010927;28;20052;-84
2022/07/11 01:49:29;;;;;;;4.15;2.40;;;15.20;99.90;;;;;;4977665;28;20045;-83
2022/07/11 01:51:55;;;;;;;5.97;3.35;;;15.20;99.90;;;;;;4990674;28;20402;-82
2022/07/11 01:54:21;;;;;;;4.38;2.67;;;15.20;99.90;;;;;;4961645;28;20402;-85
2022/07/11 01:56:47;;;;;;;5.57;3.08;;;15.20;99.90;;;;;;5011436;28;20048;-84
2022/07/11 01:59:12;;;;;;;5.22;2.78;;;15.30;99.90;;;;;;5010906;28;20770;-82
2022/07/11 02:01:38;;;;;;;9.10;3.17;;;15.30;99.90;;;;;;5011469;28;20042;-82
2022/07/11 02:04:05;;;;;;;4.60;2.92;;;15.20;99.90;;;;;;4996443;28;20482;-83
2022/07/11 02:06:31;;;;;;;3.78;3.03;;;15.20;99.90;;;;;;5011436;28;20413;-83
2022/07/11 02:08:56;;;;;;;6.00;3.03;;;15.20;99.90;;;;;;5010773;28;20050;-83
2022/07/11 02:11:23;;;;;;;5.85;3.50;;;15.20;99.90;;;;;;4977685;28;20034;-85
2022/07/11 02:13:49;;;;;;;7.32;3.40;;;15.20;99.90;;;;;;4998221;28;20050;-83
2022/07/11 02:16:15;;;;;;;4.57;3.20;;;15.20;99.90;;;;;;5009918;28;20618;-83
2022/07/11 02:18:41;;;;;;;5.72;3.60;;;15.20;99.90;;;;;;5011122;28;20049;-84
2022/07/11 02:21:06;;;;;;;5.35;3.45;;;15.20;99.90;;;;;;5011031;28;20050;-83
2022/07/11 02:23:32;;;;;;;6.13;3.60;;;15.20;99.90;;;;;;5011113;28;20482;-84
2022/07/11 02:25:57;;;;;;;6.75;3.70;;;15.30;99.90;;;;;;4960840;28;20141;-83
2022/07/11 02:28:23;;;;;;;10.10;4.13;;;15.30;99.90;;;;;;5011119;28;20076;-83
2022/07/11 02:30:49;;;;;;;6.63;3.90;;;15.30;99.90;;;;;;5013174;28;20493;-83
2022/07/11 02:33:15;;;;;;;4.28;3.70;;;15.20;99.90;;;;;;5019175;28;20049;-82
2022/07/11 02:35:42;;;;;;;5.20;3.72;;;15.20;99.90;;;;;;4979359;28;20038;-82
2022/07/11 02:38:08;;;;;;;11.38;3.92;;;15.20;99.90;;;;;;4994104;28;20050;-83
2022/07/11 02:40:33;;;;;;;5.25;3.63;;;15.30;99.90;;;;;;4977774;28;20114;-83
2022/07/11 02:42:59;;;;;;;5.68;3.65;;;15.20;99.90;;;;;;4977951;28;20057;-89
2022/07/11 02:45:25;;;;;;;4.20;3.80;;;15.30;99.90;;;;;;5001701;28;20048;-82
2022/07/11 02:47:50;;;;;;;8.52;4.30;;;15.30;99.90;;;;;;4994819;28;20042;-84
2022/07/11 02:50:16;;;;;;;6.43;4.85;;;15.20;99.90;;;;;;4993723;28;20093;-82
2022/07/11 02:52:42;;;;;;;6.18;3.90;;;15.20;99.90;;;;;;5010784;28;20165;-83
2022/07/11 02:55:09;;;;;;;5.80;4.88;;;15.20;99.90;;;;;;5010672;28;20496;-83
2022/07/11 02:57:35;;;;;;;6.75;4.68;;;15.20;99.90;;;;;;4969318;28;20046;-84
2022/07/11 03:00:02;;;;;;;6.25;5.15;;;15.20;99.90;;;;;;4974724;28;20046;-83
2022/07/11 03:02:28;;;;;;;7.20;4.88;;;15.20;99.90;;;;;;5005896;28;20601;-84
2022/07/11 03:04:54;;;;;;;5.88;4.50;;;15.20;99.90;;;;;;5010610;28;20074;-84
2022/07/11 03:07:19;;;;;;;6.55;4.35;;;15.10;99.90;;;;;;4995537;28;20038;-84
2022/07/11 03:09:45;;;;;;;5.05;4.15;;;15.20;99.90;;;;;;4996966;28;20065;-83
2022/07/11 03:12:11;;;;;;;5.68;4.30;;;15.20;99.90;;;;;;5014091;28;20477;-85
2022/07/11 03:14:37;;;;;;;6.53;4.60;;;15.20;99.90;;;;;;5009522;28;20042;-84
2022/07/11 03:17:02;;;;;;;8.20;4.53;;;15.20;99.90;;;;;;5005624;28;20053;-82
2022/07/11 03:19:28;;;;;;;7.75;4.82;;;15.20;99.90;;;;;;4995703;28;20086;-83
2022/07/11 03:21:54;;;;;;;6.15;3.42;;;15.20;99.90;;;;;;5014315;28;20057;-83
2022/07/11 03:24:19;;;;;;;5.57;4.47;;;15.10;99.90;;;;;;5013657;28;20050;-83
2022/07/11 03:26:45;;;;;;;6.72;4.78;;;15.10;99.90;;;;;;5012996;28;20090;-83
2022/07/11 03:29:11;;;;;;;4.80;3.75;;;15.20;99.90;;;;;;4989382;28;20045;-83
2022/07/11 03:31:36;;;;;;;6.75;3.58;;;15.20;99.90;;;;;;4996251;28;20046;-84
2022/07/11 03:34:02;;;;;;;7.80;3.40;;;15.10;99.90;;;;;;5007873;28;20064;-85
2022/07/11 03:36:28;;;;;;;6.05;3.33;;;15.10;99.90;;;;;;5013086;28;20491;-85
2022/07/11 03:38:53;;;;;;;4.95;2.65;;;15.10;99.90;;;;;;4997873;28;20057;-84
2022/07/11 03:41:19;;;;;;;4.15;3.03;;;15.10;99.90;;;;;;4973843;28;20046;-84
2022/07/11 03:43:45;;;;;;;3.60;3.30;;;15.10;99.90;;;;;;5014903;28;20567;-82
2022/07/11 03:46:10;;;;;;;3.67;2.83;;;15.20;99.90;;;;;;4995619;28;20045;-83
2022/07/11 03:48:36;;;;;;;3.92;3.45;;;15.20;99.90;;;;;;5013189;28;20402;-83
2022/07/11 03:51:01;;;;;;;3.60;2.90;;;15.10;99.90;;;;;;5013233;28;20402;-84
2022/07/11 03:53:27;;;;;;;5.57;3.30;;;15.20;99.90;;;;;;5012773;28;20260;-82
2022/07/11 03:55:53;;;;;;;4.43;2.90;;;15.20;99.90;;;;;;4974122;28;20468;-83
2022/07/11 03:58:18;;;;;;;5.78;3.25;;;15.20;99.90;;;;;;4992833;28;20045;-84
2022/07/11 04:00:44;;;;;;;3.53;2.25;;;15.20;99.90;;;;;;4978265;28;20513;-84
2022/07/11 04:03:10;;;;;;;2.15;1.77;;;15.20;99.90;;;;;;4995353;28;20073;-84
2022/07/11 04:05:36;;;;;;;2.08;1.92;;;15.20;99.90;;;;;;4995578;28;20060;-83
2022/07/11 04:08:01;;;;;;;3.05;1.92;;;15.20;99.90;;;;;;4979973;28;20053;-84
2022/07/11 04:10:27;;;;;;;1.88;1.67;;;15.20;99.90;;;;;;4978878;28;20033;-85
2022/07/11 04:12:53;;;;;;;2.70;1.90;;;15.30;99.90;;;;;;4995633;28;20046;-84
2022/07/11 04:15:18;;;;;;;2.78;1.95;;;15.30;99.90;;;;;;5011188;28;20700;-82
2022/07/11 04:17:44;;;;;;;3.25;1.70;;;15.20;99.90;;;;;;5012794;28;20053;-83
2022/07/11 04:20:10;;;;;;;3.15;1.92;;;15.30;99.90;;;;;;5012767;28;20068;-84
2022/07/11 04:22:36;;;;;;;2.00;1.80;;;15.30;99.90;;;;;;4995072;28;20048;-83
2022/07/11 04:25:01;;;;;;;2.85;1.90;;;15.30;99.90;;;;;;4979445;28;20042;-82
2022/07/11 04:27:27;;;;;;;2.50;1.65;;;15.40;99.90;;;;;;4978701;28;20100;-83
2022/07/11 04:29:53;;;;;;;3.45;2.20;;;15.40;99.90;;;;;;4995530;28;20050;-84
2022/07/11 04:32:20;;;;;;;2.47;2.22;;;15.50;99.90;;;;;;4994866;28;20421;-82
2022/07/11 04:34:46;;;;;;;3.22;2.22;;;15.40;99.90;;;;;;5012751;28;20061;-82
2022/07/11 04:37:12;;;;;;;2.72;2.20;;;15.40;99.90;;;;;;5013207;28;20050;-82
2022/07/11 04:39:37;;;;;;;3.45;2.20;;;15.40;99.90;;;;;;5024030;28;20060;-81
2022/07/11 04:42:06;;;;;;;2.53;2.03;;;15.40;99.90;;;;;;5009177;28;20505;-83
2022/07/11 04:44:35;;;;;;;4.20;2.28;;;15.40;99.90;;;;;;5006069;28;20049;-84
2022/07/11 04:47:00;;;;;;;2.10;1.90;;;15.40;99.90;;;;;;4994762;28;20107;-84
2022/07/11 04:49:26;;;;;;;3.10;1.75;;;15.40;99.90;;;;;;5012328;28;20042;-83
2022/07/11 04:51:52;;;;;;;2.53;1.75;;;15.40;99.90;;;;;;5012054;28;20113;-83
2022/07/11 04:54:17;;;;;;;3.05;2.17;;;15.40;99.90;;;;;;5014516;28;20050;-89
2022/07/11 04:56:43;;;;;;;3.15;1.90;;;15.40;99.90;;;;;;5013032;28;20066;-83
2022/07/11 04:59:08;;;;;;;3.35;1.70;;;15.50;99.90;;;;;;5012613;28;20409;-83
2022/07/11 05:01:34;;;;;;;2.85;1.67;;;15.50;99.90;;;;;;5011764;28;20125;-83
2022/07/11 05:04:00;;;;;;;1.45;1.23;;;15.50;99.90;;;;;;4962509;28;20060;-83
2022/07/11 05:06:26;;;;;;;1.35;1.25;;;15.60;99.90;;;;;;4994451;28;20045;-84
2022/07/11 05:08:54;;;;;;;1.73;1.23;;;15.60;99.90;;;;;;4994861;28;20037;-84
2022/07/11 05:11:20;;;;;;;1.38;1.25;;;15.70;99.90;;;;;;5011888;28;20042;-89
2022/07/11 05:13:46;;;;;;;1.85;1.20;;;15.80;99.90;;;;;;4994564;28;20119;-84
2022/07/11 05:16:11;;;;;;;1.00;1.00;;;15.80;99.90;;;;;;4998423;28;20096;-83
2022/07/11 05:18:37;;;;;;;1.48;1.27;;;15.90;99.90;;;;;;4994320;28;20069;-84
2022/07/11 05:21:03;;;;;;;2.05;1.25;;;15.90;99.90;;;;;;5012355;28;20409;-82
2022/07/11 05:23:29;;;;;;;1.65;0.90;;;16.00;99.90;;;;;;5011781;28;20496;-82
2022/07/11 05:25:54;;;;;;;1.58;0.95;;;15.90;99.90;;;;;;5012001;28;20046;-83
2022/07/11 05:28:20;;;;;;;1.17;1.08;;;15.90;99.90;;;;;;5011611;28;20048;-83
2022/07/11 05:30:45;;;;;;;0.95;0.77;;;15.90;99.90;;;;;;4999873;28;20113;-83
2022/07/11 05:33:11;;;;;;;1.20;1.00;;;15.90;99.90;;;;;;4994623;28;20153;-84
2022/07/11 05:35:36;;;;;;;0.90;0.90;;;15.90;99.90;;;;;;5011530;28;20477;-84
2022/07/11 05:38:02;;;;;;;1.27;0.90;;;15.80;99.90;;;;;;4994188;28;20058;-83
2022/07/11 05:40:28;;;;;;;1.20;1.10;;;15.80;99.90;;;;;;5011591;28;20112;-84
2022/07/11 05:42:54;;;;;;;0.90;0.88;;;15.80;99.90;;;;;;4994744;28;20060;-84
2022/07/11 05:45:19;;;;;;;1.77;0.90;;;15.80;99.90;;;;;;4994401;28;20048;-84
2022/07/11 05:47:45;;;;;;;0.93;0.65;;;15.90;99.90;;;;;;4993628;28;20046;-85
2022/07/11 05:50:11;;;;;;;1.67;1.00;;;15.80;99.90;;;;;;4994035;28;20062;-84
2022/07/11 05:52:36;;;;;;;1.98;0.77;;;15.80;99.90;;;;;;5011590;28;20167;-86
2022/07/11 05:55:02;;;;;;;0.50;0.50;;;15.80;99.90;;;;;;5011653;28;20081;-87
2022/07/11 05:57:28;;;;;;;1.30;0.70;;;15.80;99.90;;;;;;4994185;28;20061;-85
2022/07/11 05:59:54;;;;;;;0.50;0.50;;;15.80;99.90;;;;;;5011787;28;20072;-85
2022/07/11 06:02:20;;;;;;;1.60;0.60;;;15.80;99.90;;;;;;5011508;28;20042;-84
2022/07/11 06:04:45;;;;;;;0.75;0.60;;;15.80;99.90;;;;;;4993738;28;20238;-84
2022/07/11 06:07:11;;;;;;;0.47;0.47;;;15.80;99.90;;;;;;4994319;28;20112;-85
2022/07/11 06:09:37;;;;;;;0.60;0.60;;;15.90;99.90;;;;;;5011119;28;20423;-85
2022/07/11 06:12:03;;;;;;;0.55;0.45;;;15.90;99.90;;;;;;4977406;28;20054;-86
2022/07/11 06:14:29;;;;;;;0.40;0.40;;;16.00;99.90;;;;;;5007362;28;20039;-85
2022/07/11 06:16:54;;;;;;;0.40;0.40;;;16.10;99.90;;;;;;4983805;28;20121;-85
2022/07/11 06:19:20;;;;;;;0.60;0.60;;;16.10;99.90;;;;;;5010948;28;20057;-85
2022/07/11 06:21:46;;;;;;;1.65;0.40;;;16.30;99.90;;;;;;4993413;28;20053;-85
2022/07/11 06:24:11;;;;;;;0.47;0.47;;;16.40;99.90;;;;;;4977858;28;20080;-85
2022/07/11 06:26:37;;;;;;;0.57;0.40;;;16.50;99.90;;;;;;4992897;28;20121;-85
2022/07/11 06:29:03;;;;;;;0.50;0.50;;;16.80;99.90;;;;;;4977323;28;20057;-85
2022/07/11 06:31:29;;;;;;;0.55;0.52;;;17.20;99.90;;;;;;4993342;28;20050;-85
2022/07/11 06:33:54;;;;;;;0.50;0.50;;;17.30;99.90;;;;;;5010916;28;20053;-85
2022/07/11 06:36:24;;;;;;;1.02;0.50;;;17.50;99.90;;;;;;4997174;28;20453;-85
2022/07/11 06:38:50;;;;;;;0.75;0.55;;;17.60;99.90;;;;;;4993443;28;20053;-87
2022/07/11 06:41:16;;;;;;;1.60;0.68;;;17.80;99.90;;;;;;5012656;28;20045;-85
2022/07/11 06:43:42;;;;;;;1.63;0.68;;;17.60;99.90;;;;;;5014579;28;20042;-85
2022/07/11 06:46:07;;;;;;;0.77;0.60;;;17.70;99.90;;;;;;4965270;28;20103;-85
2022/07/11 06:48:33;;;;;;;0.40;0.40;;;17.60;99.90;;;;;;4996992;28;20045;-88
2022/07/11 06:50:58;;;;;;;0.93;0.60;;;17.50;99.90;;;;;;5014674;28;20042;-85
2022/07/11 06:53:24;;;;;;;1.58;0.57;;;17.40;99.90;;;;;;5015007;28;20053;-86
2022/07/11 06:55:50;;;;;;;0.77;0.50;;;17.30;99.90;;;;;;5014426;28;20045;-86
2022/07/11 06:58:31;;;;;;;1.20;0.50;;;17.30;99.90;;;;;;4997176;28;20475;-85
2022/07/11 07:00:58;;;;;;;1.50;0.77;;;17.30;99.90;;;;;;4997367;28;20060;-85
2022/07/11 07:03:24;;;;;;;0.90;0.50;;;17.30;99.90;;;;;;5014407;28;20061;-84
2022/07/11 07:05:51;;;;;;;0.45;0.30;;;17.30;99.90;;;;;;4996507;28;20050;-86
2022/07/11 07:08:17;;;;;;;0.38;0.20;;;17.60;99.90;;;;;;4997554;28;20089;-86
2022/07/11 07:10:43;;;;;;;0.40;0.40;;;17.60;99.90;;;;;;5014083;28;20077;-86
2022/07/11 07:13:08;;;;;;;0.75;0.45;;;18.40;99.90;;;;;;5015815;28;20073;-84
2022/07/11 07:15:34;;;;;;;0.93;0.50;;;18.80;99.90;;;;;;5004486;28;20042;-85
2022/07/11 07:17:59;;;;;;;0.30;0.30;;;19.60;99.90;;;;;;4997799;28;20151;-86
2022/07/11 07:20:25;;;;;;;0.52;0.40;;;20.70;99.90;;;;;;4990249;28;20409;-87
2022/07/11 07:22:52;;;;;;;0.38;0.38;;;20.70;99.90;;;;;;4998430;28;20061;-87
2022/07/11 07:25:19;;;;;;;0.10;0.10;;;20.80;99.90;;;;;;4998527;28;20050;-88
2022/07/11 07:27:45;;;;;;;0.55;0.40;;;20.70;99.90;;;;;;4974046;28;20073;-88
2022/07/11 07:30:11;;;;;;;0.40;0.20;;;20.20;99.90;;;;;;5003010;28;20474;-87
2022/07/11 07:32:37;;;;;;;0.38;0.38;;;19.60;99.90;;;;;;5018637;28;20053;-88
2022/07/11 07:35:03;;;;;;;0.40;0.40;;;19.50;99.90;;;;;;5003960;28;20050;-84
2022/07/11 07:37:29;;;;;;;0.28;0.28;;;19.30;99.90;;;;;;5016769;28;20046;-87
2022/07/11 07:39:54;;;;;;;0.68;0.50;;;19.20;99.90;;;;;;4993605;28;20410;-87
2022/07/11 07:42:21;;;;;;;0.20;0.20;;;19.00;99.90;;;;;;5016192;28;20037;-84
2022/07/11 07:44:47;;;;;;;0.50;0.50;;;18.80;99.90;;;;;;5015294;28;20502;-85
2022/07/11 07:47:12;;;;;;;0.52;0.35;;;18.70;99.90;;;;;;4996319;28;20120;-87
2022/07/11 07:49:38;;;;;;;0.38;0.38;;;18.70;99.90;;;;;;4995583;28;20488;-86
2022/07/11 07:52:04;;;;;;;0.47;0.40;;;18.80;99.90;;;;;;4974809;28;20105;-86
2022/07/11 07:54:29;;;;;;;0.22;0.22;;;18.80;99.90;;;;;;4996559;28;20046;-87
2022/07/11 07:56:56;;;;;;;1.35;0.40;;;18.60;99.90;;;;;;5012378;28;20041;-86
2022/07/11 07:59:24;;;;;;;0.25;0.25;;;18.60;99.90;;;;;;5012322;28;20049;-86
2022/07/11 08:01:51;;;;;;;0.20;0.20;;;18.60;99.90;;;;;;4992623;28;20046;-85
2022/07/11 08:04:17;;;;;;;0.30;0.30;;;18.60;99.90;;;;;;4996128;28;20049;-86
2022/07/11 08:06:42;;;;;;;0.40;0.30;;;18.60;99.90;;;;;;4947757;28;20053;-86
2022/07/11 08:09:08;;;;;;;0.77;0.40;;;18.60;99.90;;;;;;4976799;28;20057;-84
2022/07/11 08:11:34;;;;;;;0.35;0.35;;;18.60;99.90;;;;;;4978861;28;20042;-85
2022/07/11 08:14:00;;;;;;;0.40;0.38;;;18.60;99.90;;;;;;4974697;28;20073;-84
2022/07/11 08:16:28;;;;;;;0.95;0.38;;;18.80;99.90;;;;;;4965727;28;20092;-86
2022/07/11 08:18:55;;;;;;;0.80;0.22;;;19.00;99.90;;;;;;4979373;28;20144;-83
2022/07/11 08:21:21;;;;;;;0.40;0.30;;;18.90;99.90;;;;;;4992581;28;20126;-84
2022/07/11 08:23:47;;;;;;;0.30;0.30;;;18.80;99.90;;;;;;4995568;28;20057;-88
2022/07/11 08:26:13;;;;;;;0.30;0.30;;;18.90;99.90;;;;;;5013181;28;20128;-84
2022/07/11 08:28:39;;;;;;;0.55;0.40;;;18.90;99.90;;;;;;5013483;28;20061;-84
2022/07/11 08:31:04;;;;;;;0.40;0.40;;;18.70;99.90;;;;;;5010440;28;20042;-84
2022/07/11 08:33:33;;;;;;;0.57;0.38;;;18.70;99.90;;;;;;4995585;28;20125;-88
2022/07/11 08:35:58;;;;;;;0.38;0.38;;;18.50;99.90;;;;;;4947311;28;20111;-83
2022/07/11 08:38:24;;;;;;;0.38;0.38;;;18.50;99.90;;;;;;5013302;28;20045;-84
2022/07/11 08:40:50;;;;;;;0.50;0.50;;;18.50;99.90;;;;;;5011972;28;20046;-87
2022/07/11 08:43:17;;;;;;;0.40;0.40;;;18.50;99.90;;;;;;4981456;28;20541;-85
2022/07/11 08:45:43;;;;;;;0.82;0.60;;;18.50;99.90;;;;;;4976004;28;20415;-86
2022/07/11 08:48:09;;;;;;;0.43;0.43;;;18.50;99.90;;;;;;4978446;28;20053;-86
2022/07/11 08:50:35;;;;;;;0.57;0.50;;;18.60;99.90;;;;;;4994133;28;20132;-89
2022/07/11 08:53:00;;;;;;;0.75;0.40;;;18.90;99.90;;;;;;5009612;28;20034;-88
2022/07/11 08:55:26;;;;;;;0.77;0.65;;;18.90;99.90;;;;;;4948322;28;20125;-88
2022/07/11 08:57:52;;;;;;;0.43;0.43;;;19.10;99.90;;;;;;4974075;28;20533;-87
2022/07/11 09:00:19;;;;;;;0.47;0.47;;;19.30;99.90;;;;;;5014649;28;20057;-85
2022/07/11 09:02:44;;;;;;;0.40;0.40;;;19.40;99.90;;;;;;5012206;28;20053;-84
2022/07/11 09:05:10;;;;;;;0.43;0.43;;;19.40;99.90;;;;;;5007638;28;20041;-84
2022/07/11 09:07:54;;;;;;;0.40;0.40;;;19.60;99.90;;;;;;5028539;28;20077;-84
2022/07/11 09:10:20;;;;;;;0.38;0.32;;;19.60;99.90;;;;;;4962900;28;20125;-85
2022/07/11 09:13:08;;;;;;;0.22;0.22;;;19.40;99.90;;;;;;5024578;28;20120;-86
2022/07/11 09:15:41;;;;;;;1.17;0.40;;;19.30;99.90;;;;;;4998566;28;20109;-85
2022/07/11 09:18:30;;;;;;;0.20;0.20;;;19.20;99.90;;;;;;4996561;28;20406;-84
2022/07/11 09:26:40;;;;;;;0.68;0.25;;;19.20;99.90;;;;;;4981046;28;20398;-85
2022/07/11 09:29:10;;;;;;;0.50;0.50;;;19.10;99.90;;;;;;4959037;28;20046;-83
2022/07/11 09:31:37;;;;;;;1.45;0.35;;;18.90;99.90;;;;;;4992996;28;20050;-83
2022/07/11 09:34:10;;;;;;;0.30;0.30;;;18.80;99.90;;;;;;4985370;28;20096;-83
2022/07/11 09:36:46;;;;;;;0.80;0.40;;;19.00;99.90;;;;;;5010252;28;20498;-83
2022/07/11 09:39:14;;;;;;;0.55;0.55;;;19.00;99.90;;;;;;4987813;28;20061;-86
2022/07/11 09:41:40;;;;;;;0.20;0.20;;;19.10;99.90;;;;;;5007414;28;20058;-84
2022/07/11 09:44:18;;;;;;;0.90;0.20;;;19.20;99.90;;;;;;4968313;28;20041;-82
2022/07/11 09:46:46;;;;;;;0.10;0.10;;;19.30;99.90;;;;;;5000315;28;20041;-84
2022/07/11 09:49:13;;;;;;;0.35;0.30;;;19.50;99.90;;;;;;4994081;28;20049;-85
2022/07/11 09:51:39;;;;;;;0.15;0.15;;;19.70;99.90;;;;;;4994130;28;20447;-84
2022/07/11 09:54:05;;;;;;;0.20;0.20;;;19.90;99.90;;;;;;4993522;28;20092;-81
2022/07/11 09:56:42;;;;;;;0.30;0.30;;;20.20;99.90;;;;;;4987990;28;20048;-84
2022/07/11 09:59:09;;;;;;;1.75;0.35;;;20.10;99.90;;;;;;5010557;28;20115;-84
2022/07/11 10:01:35;;;;;;;0.55;0.40;;;19.90;99.90;;;;;;4971870;28;20088;-83
2022/07/11 10:04:00;;;;;;;0.30;0.30;;;19.70;99.90;;;;;;5010717;28;20082;-90
2022/07/11 10:06:26;;;;;;;0.45;0.30;;;19.50;99.90;;;;;;5009450;28;20049;-83
2022/07/11 10:08:52;;;;;;;0.28;0.28;;;19.50;99.90;;;;;;4994809;28;20054;-83
2022/07/11 10:11:18;;;;;;;0.10;0.10;;;19.40;99.90;;;;;;4983800;28;20462;-84
2022/07/11 10:13:44;;;;;;;1.02;0.20;;;19.50;99.90;;;;;;4991829;28;20072;-88
2022/07/11 10:16:23;;;;;;;0.50;0.30;;;19.60;99.90;;;;;;4977118;28;20053;-87
2022/07/11 10:19:50;;;;;;;1.45;0.30;;;19.50;99.90;;;;;;4967225;28;20377;-84
2022/07/11 10:22:25;;;;;;;0.80;0.20;;;19.70;99.90;;;;;;4914950;29;20044;-86
2022/07/11 10:25:15;;;;;;;0.28;0.28;;;19.60;99.90;;;;;;4991493;28;20088;-85
2022/07/11 10:27:58;;;;;;;0.30;0.15;;;19.70;99.90;;;;;;4997384;28;20069;-86
2022/07/11 10:30:55;;;;;;;0.28;0.28;;;19.60;99.90;;;;;;4992289;28;20383;-84
2022/07/11 10:33:21;;;;;;;0.10;0.10;;;19.40;99.90;;;;;;4959134;28;20046;-83
2022/07/11 10:35:49;;;;;;;0.30;0.30;;;19.20;99.90;;;;;;4955665;28;20050;-84
2022/07/11 10:38:15;;;;;;;0.20;0.20;;;19.20;99.90;;;;;;4977234;28;20042;-86
2022/07/11 10:40:46;;;;;;;0.28;0.28;;;19.20;99.90;;;;;;5010927;28;20392;-83
2022/07/11 10:43:14;;;;;;;0.30;0.30;;;19.30;99.90;;;;;;4997455;28;20054;-84
2022/07/11 10:46:02;;;;;;;0.20;0.20;;;19.10;99.90;;;;;;4992662;28;20390;-84
2022/07/11 10:48:29;;;;;;;0.30;0.30;;;19.10;99.90;;;;;;4975971;28;20086;-85
2022/07/11 10:51:05;;;;;;;0.20;0.20;;;19.20;99.90;;;;;;4990990;28;20038;-84
2022/07/11 10:53:33;;;;;;;2.55;0.57;;;19.20;99.90;;;;;;4976050;28;20099;-83
2022/07/11 10:56:06;;;;;;;0.20;0.20;;;19.30;99.90;;;;;;4996052;28;20095;-83
2022/07/11 10:58:32;;;;;;;0.63;0.30;;;19.30;99.90;;;;;;4993222;28;20383;-83
2022/07/11 11:01:16;;;;;;;0.28;0.20;;;19.40;99.90;;;;;;5010203;28;20045;-83
2022/07/11 11:03:42;;;;;;;0.20;0.20;;;19.30;99.90;;;;;;5013354;28;20049;-84
2022/07/11 11:06:09;;;;;;;0.52;0.40;;;19.10;99.90;;;;;;4999866;28;20046;-83
2022/07/11 11:08:40;;;;;;;0.30;0.30;;;19.40;99.90;;;;;;5010981;28;20049;-84
2022/07/11 11:11:06;;;;;;;0.57;0.40;;;19.50;99.90;;;;;;5007571;28;20053;-84
2022/07/11 11:13:35;;;;;;;0.40;0.28;;;19.40;99.90;;;;;;4994703;28;20111;-83
2022/07/11 11:16:02;;;;;;;0.80;0.40;;;19.70;99.90;;;;;;5006132;28;20111;-85
2022/07/11 11:18:34;;;;;;;0.20;0.20;;;19.70;99.90;;;;;;4961023;28;20544;-85
2022/07/11 11:21:04;;;;;;;0.30;0.30;;;19.70;99.90;;;;;;4990101;28;20057;-84
2022/07/11 11:23:40;;;;;;;0.30;0.30;;;19.70;99.90;;;;;;4992176;28;20050;-84
2022/07/11 11:26:13;;;;;;;0.25;0.25;;;19.70;99.90;;;;;;4960957;28;20471;-85
2022/07/11 11:28:53;;;;;;;0.77;0.30;;;19.80;99.90;;;;;;5012133;28;20049;-84
2022/07/11 11:31:20;;;;;;;0.88;0.40;;;20.20;99.90;;;;;;5010819;28;20057;-85
2022/07/11 11:33:47;;;;;;;0.22;0.22;;;20.40;99.90;;;;;;4995966;28;20056;-85
2022/07/11 11:36:15;;;;;;;0.20;0.20;;;20.70;99.90;;;;;;4976848;28;20096;-89
2022/07/11 11:38:42;;;;;;;0.30;0.30;;;21.30;99.90;;;;;;4993407;28;20042;-83
2022/07/11 11:41:07;;;;;;;0.20;0.20;;;20.80;99.90;;;;;;4994941;28;20046;-85
2022/07/11 11:43:34;;;;;;;1.73;0.73;;;20.90;99.90;;;;;;4993832;28;20050;-84
2022/07/11 11:45:59;;;;;;;0.20;0.20;;;20.70;99.90;;;;;;4972020;28;20509;-86
2022/07/11 11:48:26;;;;;;;1.50;0.50;;;20.40;99.90;;;;;;4992957;28;20038;-83
2022/07/11 11:50:53;;;;;;;0.80;0.50;;;20.70;99.90;;;;;;5016049;28;20437;-87
2022/07/11 11:53:18;;;;;;;2.15;0.73;;;20.70;99.90;;;;;;4998479;28;20065;-84
2022/07/11 11:55:44;;;;;;;0.47;0.40;;;20.70;99.90;;;;;;4995710;28;20046;-85
2022/07/11 11:58:10;;;;;;;2.72;0.60;;;20.80;99.90;;;;;;5023826;28;20054;-82
2022/07/11 12:00:35;;;;;;;2.50;0.40;;;20.60;99.90;;;;;;5008984;28;20034;-83
2022/07/11 12:03:01;;;;;;;0.30;0.30;;;20.80;99.90;;;;;;4993988;28;20050;-83
2022/07/11 12:05:29;;;;;;;0.43;0.40;;;20.50;99.90;;;;;;5014080;28;20042;-84
2022/07/11 12:07:55;;;;;;;1.08;0.30;;;20.70;99.90;;;;;;5003960;28;20148;-84
2022/07/11 12:10:21;;;;;;;1.10;0.30;;;20.40;99.90;;;;;;5003838;28;20551;-84
2022/07/11 12:12:47;;;;;;;0.20;0.20;;;20.40;99.90;;;;;;5005885;28;20080;-85
2022/07/11 12:16:39;;;;;;;0.30;0.30;;;20.30;99.90;;;;;;4987883;28;20505;-84
2022/07/11 12:18:20;;;;;;;0.93;0.30;;;20.20;99.90;;;;;;4975403;28;20057;-84
2022/07/11 12:20:47;;;;;;;0.45;0.30;;;20.30;99.90;;;;;;4990432;28;20092;-83
2022/07/11 12:23:16;;;;;;;0.30;0.30;;;20.30;99.90;;;;;;4995037;28;20061;-84
2022/07/11 12:25:42;;;;;;;0.30;0.30;;;20.30;99.90;;;;;;4980032;28;20171;-82
2022/07/11 12:28:09;;;;;;;1.13;0.45;;;20.20;99.90;;;;;;4981387;28;20049;-84
2022/07/11 12:30:35;;;;;;;2.28;0.45;;;20.40;99.90;;;;;;4997246;28;20100;-82
2022/07/11 12:33:13;;;;;;;0.65;0.60;;;20.60;99.90;;;;;;4998115;28;20054;-82
2022/07/11 12:36:01;;;;;;;0.40;0.40;;;20.50;99.90;;;;;;4979374;28;20075;-83
2022/07/11 12:38:46;;;;;;;0.50;0.50;;;20.30;99.90;;;;;;4978422;28;20041;-84
2022/07/11 12:41:13;;;;;;;1.85;0.60;;;20.40;99.90;;;;;;4998804;28;20080;-84
2022/07/11 12:46:33;;;;;;;0.43;0.43;;;20.50;99.90;;;;;;5011908;28;20053;-83
2022/07/11 12:49:02;;;;;;;0.52;0.50;;;20.50;99.90;;;;;;5014972;28;20053;-82
2022/07/11 12:51:34;;;;;;;2.08;0.50;;;20.60;99.90;;;;;;4977305;28;20081;-86
2022/07/11 12:54:04;;;;;;;1.35;0.52;;;20.60;99.90;;;;;;5006826;28;20482;-82
2022/07/11 12:56:30;;;;;;;0.70;0.50;;;20.60;99.90;;;;;;4994524;28;20061;-82
2022/07/11 12:58:55;;;;;;;0.30;0.30;;;20.50;99.90;;;;;;4983750;28;20037;-83